KGBD

Great Bend Municipal Airport

Great Bend, Kansas, USA
METAR KGBD 201856Z AUTO 01007KT 350V050 10SM CLR 19/02 A3036 RMK AO2 SLP279 T01940017
Observed Flight Rules
Oct-20 @ 18:56 UTC (29 minutes ago) Visual Flight Rules
Wind Visibility Clouds
10° at 7 knots 10 miles
  • Clear skies
Temperatures Readings
Current 19°C / 66°F
Dewpoint 2°C / 36°F
Humidity 32%
Altimeter 30.36" Hg
Pressure 1027.9 hPa
Elevation 575
METAR KGBD 201856Z AUTO 01007KT 350V050 10SM CLR 19/02 A3036 RMK AO2 SLP279 T01940017
Observed Flight Rules
Oct-20 @ 18:56 UTC
(29 minutes ago)
VFR
Wind Visibility
10° at 7 knots 10 miles
Clouds
  • Clear skies
Temperature Dewpoint
19°C / 66°F 2°C / 36°F
Humidity Altimeter Pressure
32% 30.36" Hg 1027.9 hPa